Illinois River (Oklahoma), Tahlequah (07196500)

StateOklahomaLatestGood (788 cfs)
RiverIllinois RiverRatingObservedEstimated
Updated2021-03-03 14:30 (25 minutes ago)Flood - The river is flooding. Obstacles can be treacherous or deadly. The river should be avoided at this stage for casual trips and definitely for the inexperienced. Trips should be attempted only with protective gear and equipment.Flood(none)3443
Discharge788 cfs (median: 784 cfs)High - The river is high and potentially dangerous, especially for the young and / or inexperienced. Normal stream obstacles are sometimes difficult to navigate. Extended distances can be attempted, but canoe travel may not be advisable.High(none)1734
Height5.68 feetGood - Conditions are ideal for a canoe or kayak. Boats typically will drag on fewer than one-quarter of riffles, if at all, and portages are unnecessary or rare. Normal float lengths can be attempted without a problem.Good300924
TrendSteady (falling over 24 hours)Low - River is low but can still be floated. Some riffles are okay but most come with significant dragging and might need a portage. Float lengths should be reduced to accommodate low flow, dragging, and portages.Low(none)607
USGSExternal icon USGS Site (External icon Google Maps)Poor - River is too low to float comfortably. Most or all riffles will drag or must be portaged and some obstacles (such as slick shelf rock) cause undue problems. Avoid the river at this stage for casual paddling trips.Poor(none)234

Trending Data

Plot Image

Trips for Illinois River (Oklahoma), Tahlequah (07196500)

DateStartEndDistanceConditionDischargeHeightFishingDetails

A total of 0 rows are displayed.

Condition Descriptions

Fishing Conditions

Fish Species

Notes

Classic Trip List

The classic River Trips application is still available for use. It is updated with the new system using a data retrofit. It is no longer maintained. The original River Trips application is no longer updated (as of 1 Dec 2016) but can be checked for errors or for the condition of the data before it was converted to the new system.

Gauge Data Table

ObservationHeightDischargeMaximum
Discharge
Minimum
Discharge
Mean
Discharge
P05P10P20P25P50
(Median)
P75P80P90P95
2021-03-03 14:30 5.68 788 15200 (1945) 98 (1964) 1290 166 235 347 390 784 1370 1850 2760 4860
2021-03-03 13:30 5.68 788 15200 (1945) 98 (1964) 1290 166 235 347 390 784 1370 1850 2760 4860
2021-03-03 12:30 5.68 788 15200 (1945) 98 (1964) 1290 166 235 347 390 784 1370 1850 2760 4860
2021-03-03 11:30 5.69 794 15200 (1945) 98 (1964) 1290 166 235 347 390 784 1370 1850 2760 4860
2021-03-03 10:30 5.68 788 15200 (1945) 98 (1964) 1290 166 235 347 390 784 1370 1850 2760 4860
2021-03-03 09:30 5.70 801 15200 (1945) 98 (1964) 1290 166 235 347 390 784 1370 1850 2760 4860
2021-03-03 08:30 5.71 807 15200 (1945) 98 (1964) 1290 166 235 347 390 784 1370 1850 2760 4860
2021-03-03 07:30 5.71 807 15200 (1945) 98 (1964) 1290 166 235 347 390 784 1370 1850 2760 4860
2021-03-03 06:30 5.70 801 15200 (1945) 98 (1964) 1290 166 235 347 390 784 1370 1850 2760 4860
2021-03-03 05:30 5.71 807 15200 (1945) 98 (1964) 1290 166 235 347 390 784 1370 1850 2760 4860
2021-03-03 04:30 5.71 807 15200 (1945) 98 (1964) 1290 166 235 347 390 784 1370 1850 2760 4860
2021-03-03 03:30 5.71 807 15200 (1945) 98 (1964) 1290 166 235 347 390 784 1370 1850 2760 4860
2021-03-03 02:30 5.71 807 15200 (1945) 98 (1964) 1290 166 235 347 390 784 1370 1850 2760 4860
2021-03-03 01:30 5.72 814 15200 (1945) 98 (1964) 1290 166 235 347 390 784 1370 1850 2760 4860
2021-03-03 00:30 5.72 814 15200 (1945) 98 (1964) 1290 166 235 347 390 784 1370 1850 2760 4860
2021-03-02 23:30 5.71 807 5510 (1987) 94 (1964) 1120 152 211 319 382 755 1350 1640 2530 3450
2021-03-02 22:30 5.72 814 5510 (1987) 94 (1964) 1120 152 211 319 382 755 1350 1640 2530 3450
2021-03-02 21:30 5.71 807 5510 (1987) 94 (1964) 1120 152 211 319 382 755 1350 1640 2530 3450
2021-03-02 20:30 5.71 807 5510 (1987) 94 (1964) 1120 152 211 319 382 755 1350 1640 2530 3450
2021-03-02 19:30 5.71 807 5510 (1987) 94 (1964) 1120 152 211 319 382 755 1350 1640 2530 3450
2021-03-02 18:30 5.70 801 5510 (1987) 94 (1964) 1120 152 211 319 382 755 1350 1640 2530 3450
2021-03-02 17:30 5.70 801 5510 (1987) 94 (1964) 1120 152 211 319 382 755 1350 1640 2530 3450
2021-03-02 16:30 5.71 807 5510 (1987) 94 (1964) 1120 152 211 319 382 755 1350 1640 2530 3450
2021-03-02 15:30 5.70 801 5510 (1987) 94 (1964) 1120 152 211 319 382 755 1350 1640 2530 3450
2021-03-02 14:30 5.71 807 5510 (1987) 94 (1964) 1120 152 211 319 382 755 1350 1640 2530 3450
2021-03-02 13:30 5.70 801 5510 (1987) 94 (1964) 1120 152 211 319 382 755 1350 1640 2530 3450
2021-03-02 12:30 5.71 807 5510 (1987) 94 (1964) 1120 152 211 319 382 755 1350 1640 2530 3450
2021-03-02 11:30 5.72 814 5510 (1987) 94 (1964) 1120 152 211 319 382 755 1350 1640 2530 3450
2021-03-02 10:30 5.71 807 5510 (1987) 94 (1964) 1120 152 211 319 382 755 1350 1640 2530 3450
2021-03-02 09:30 5.71 807 5510 (1987) 94 (1964) 1120 152 211 319 382 755 1350 1640 2530 3450
2021-03-02 08:30 5.71 807 5510 (1987) 94 (1964) 1120 152 211 319 382 755 1350 1640 2530 3450
2021-03-02 07:30 5.70 801 5510 (1987) 94 (1964) 1120 152 211 319 382 755 1350 1640 2530 3450
2021-03-02 06:30 5.72 814 5510 (1987) 94 (1964) 1120 152 211 319 382 755 1350 1640 2530 3450
2021-03-02 05:30 5.72 814 5510 (1987) 94 (1964) 1120 152 211 319 382 755 1350 1640 2530 3450
2021-03-02 04:30 5.71 807 5510 (1987) 94 (1964) 1120 152 211 319 382 755 1350 1640 2530 3450
2021-03-02 03:30 5.72 814 5510 (1987) 94 (1964) 1120 152 211 319 382 755 1350 1640 2530 3450
2021-03-02 02:30 5.72 814 5510 (1987) 94 (1964) 1120 152 211 319 382 755 1350 1640 2530 3450
2021-03-02 01:30 5.71 807 5510 (1987) 94 (1964) 1120 152 211 319 382 755 1350 1640 2530 3450
2021-03-02 00:30 5.72 814 5510 (1987) 94 (1964) 1120 152 211 319 382 755 1350 1640 2530 3450
2021-03-01 23:30 5.71 807 4840 (2018) 90 (1964) 1090 152 238 322 384 722 1240 1570 2750 3720
2021-03-01 22:30 5.72 814 4840 (2018) 90 (1964) 1090 152 238 322 384 722 1240 1570 2750 3720
2021-03-01 21:30 5.73 821 4840 (2018) 90 (1964) 1090 152 238 322 384 722 1240 1570 2750 3720
2021-03-01 20:30 5.72 814 4840 (2018) 90 (1964) 1090 152 238 322 384 722 1240 1570 2750 3720
2021-03-01 19:30 5.71 807 4840 (2018) 90 (1964) 1090 152 238 322 384 722 1240 1570 2750 3720
2021-03-01 18:30 5.71 807 4840 (2018) 90 (1964) 1090 152 238 322 384 722 1240 1570 2750 3720
2021-03-01 17:30 5.71 807 4840 (2018) 90 (1964) 1090 152 238 322 384 722 1240 1570 2750 3720
2021-03-01 16:30 5.71 807 4840 (2018) 90 (1964) 1090 152 238 322 384 722 1240 1570 2750 3720
2021-03-01 15:30 5.72 814 4840 (2018) 90 (1964) 1090 152 238 322 384 722 1240 1570 2750 3720
2021-03-01 14:30 5.71 807 4840 (2018) 90 (1964) 1090 152 238 322 384 722 1240 1570 2750 3720
2021-03-01 13:30 5.71 807 4840 (2018) 90 (1964) 1090 152 238 322 384 722 1240 1570 2750 3720
2021-03-01 12:30 5.71 807 4840 (2018) 90 (1964) 1090 152 238 322 384 722 1240 1570 2750 3720
2021-03-01 11:30 5.71 807 4840 (2018) 90 (1964) 1090 152 238 322 384 722 1240 1570 2750 3720
2021-03-01 10:30 5.71 807 4840 (2018) 90 (1964) 1090 152 238 322 384 722 1240 1570 2750 3720
2021-03-01 09:30 5.73 821 4840 (2018) 90 (1964) 1090 152 238 322 384 722 1240 1570 2750 3720
2021-03-01 08:30 5.72 814 4840 (2018) 90 (1964) 1090 152 238 322 384 722 1240 1570 2750 3720
2021-03-01 07:30 5.73 821 4840 (2018) 90 (1964) 1090 152 238 322 384 722 1240 1570 2750 3720
2021-03-01 06:30 5.73 821 4840 (2018) 90 (1964) 1090 152 238 322 384 722 1240 1570 2750 3720
2021-03-01 05:30 5.73 821 4840 (2018) 90 (1964) 1090 152 238 322 384 722 1240 1570 2750 3720
2021-03-01 04:30 5.72 814 4840 (2018) 90 (1964) 1090 152 238 322 384 722 1240 1570 2750 3720
2021-03-01 03:30 5.73 821 4840 (2018) 90 (1964) 1090 152 238 322 384 722 1240 1570 2750 3720
2021-03-01 02:30 5.74 827 4840 (2018) 90 (1964) 1090 152 238 322 384 722 1240 1570 2750 3720
2021-03-01 01:30 5.74 827 4840 (2018) 90 (1964) 1090 152 238 322 384 722 1240 1570 2750 3720
2021-03-01 00:30 5.73 821 4840 (2018) 90 (1964) 1090 152 238 322 384 722 1240 1570 2750 3720
2021-02-28 23:30 5.74 827 6320 (1945) 90 (1964) 1080 145 243 313 386 692 1190 1490 2600 4160
2021-02-28 22:30 5.73 821 6320 (1945) 90 (1964) 1080 145 243 313 386 692 1190 1490 2600 4160
2021-02-28 21:30 5.75 834 6320 (1945) 90 (1964) 1080 145 243 313 386 692 1190 1490 2600 4160
2021-02-28 20:30 5.73 821 6320 (1945) 90 (1964) 1080 145 243 313 386 692 1190 1490 2600 4160
2021-02-28 19:30 5.72 814 6320 (1945) 90 (1964) 1080 145 243 313 386 692 1190 1490 2600 4160
2021-02-28 18:30 5.72 814 6320 (1945) 90 (1964) 1080 145 243 313 386 692 1190 1490 2600 4160
2021-02-28 17:30 5.72 814 6320 (1945) 90 (1964) 1080 145 243 313 386 692 1190 1490 2600 4160
2021-02-28 16:30 5.73 821 6320 (1945) 90 (1964) 1080 145 243 313 386 692 1190 1490 2600 4160
2021-02-28 15:30 5.73 821 6320 (1945) 90 (1964) 1080 145 243 313 386 692 1190 1490 2600 4160
2021-02-28 14:30 5.74 827 6320 (1945) 90 (1964) 1080 145 243 313 386 692 1190 1490 2600 4160
2021-02-28 13:30 5.73 821 6320 (1945) 90 (1964) 1080 145 243 313 386 692 1190 1490 2600 4160
2021-02-28 12:30 5.73 821 6320 (1945) 90 (1964) 1080 145 243 313 386 692 1190 1490 2600 4160
2021-02-28 11:30 5.73 821 6320 (1945) 90 (1964) 1080 145 243 313 386 692 1190 1490 2600 4160
2021-02-28 10:30 5.74 827 6320 (1945) 90 (1964) 1080 145 243 313 386 692 1190 1490 2600 4160
2021-02-28 09:30 5.71 807 6320 (1945) 90 (1964) 1080 145 243 313 386 692 1190 1490 2600 4160
2021-02-28 08:30 5.72 814 6320 (1945) 90 (1964) 1080 145 243 313 386 692 1190 1490 2600 4160
2021-02-28 07:30 5.72 814 6320 (1945) 90 (1964) 1080 145 243 313 386 692 1190 1490 2600 4160
2021-02-28 06:30 5.72 814 6320 (1945) 90 (1964) 1080 145 243 313 386 692 1190 1490 2600 4160
2021-02-28 05:30 5.71 807 6320 (1945) 90 (1964) 1080 145 243 313 386 692 1190 1490 2600 4160
2021-02-28 04:30 5.73 821 6320 (1945) 90 (1964) 1080 145 243 313 386 692 1190 1490 2600 4160
2021-02-28 03:30 5.73 821 6320 (1945) 90 (1964) 1080 145 243 313 386 692 1190 1490 2600 4160
2021-02-28 02:30 5.73 821 6320 (1945) 90 (1964) 1080 145 243 313 386 692 1190 1490 2600 4160
2021-02-28 01:30 5.73 821 6320 (1945) 90 (1964) 1080 145 243 313 386 692 1190 1490 2600 4160
2021-02-28 00:30 5.70 801 6320 (1945) 90 (1964) 1080 145 243 313 386 692 1190 1490 2600 4160
2021-02-27 23:30 5.71 807 9220 (1945) 92 (1964) 1160 141 238 327 363 713 1240 1320 2500 4870
2021-02-27 22:30 5.71 807 9220 (1945) 92 (1964) 1160 141 238 327 363 713 1240 1320 2500 4870
2021-02-27 21:30 5.72 814 9220 (1945) 92 (1964) 1160 141 238 327 363 713 1240 1320 2500 4870
2021-02-27 20:30 5.73 821 9220 (1945) 92 (1964) 1160 141 238 327 363 713 1240 1320 2500 4870
2021-02-27 19:30 5.72 814 9220 (1945) 92 (1964) 1160 141 238 327 363 713 1240 1320 2500 4870
2021-02-27 18:30 5.73 821 9220 (1945) 92 (1964) 1160 141 238 327 363 713 1240 1320 2500 4870
2021-02-27 17:30 5.72 814 9220 (1945) 92 (1964) 1160 141 238 327 363 713 1240 1320 2500 4870
2021-02-27 16:30 5.73 821 9220 (1945) 92 (1964) 1160 141 238 327 363 713 1240 1320 2500 4870
2021-02-27 15:30 5.72 814 9220 (1945) 92 (1964) 1160 141 238 327 363 713 1240 1320 2500 4870
2021-02-27 14:30 5.72 814 9220 (1945) 92 (1964) 1160 141 238 327 363 713 1240 1320 2500 4870
2021-02-27 13:30 5.70 801 9220 (1945) 92 (1964) 1160 141 238 327 363 713 1240 1320 2500 4870
2021-02-27 12:30 5.72 814 9220 (1945) 92 (1964) 1160 141 238 327 363 713 1240 1320 2500 4870
2021-02-27 11:30 5.72 814 9220 (1945) 92 (1964) 1160 141 238 327 363 713 1240 1320 2500 4870
2021-02-27 10:30 5.73 821 9220 (1945) 92 (1964) 1160 141 238 327 363 713 1240 1320 2500 4870
2021-02-27 09:30 5.73 821 9220 (1945) 92 (1964) 1160 141 238 327 363 713 1240 1320 2500 4870
2021-02-27 08:30 5.74 827 9220 (1945) 92 (1964) 1160 141 238 327 363 713 1240 1320 2500 4870
2021-02-27 07:30 5.74 827 9220 (1945) 92 (1964) 1160 141 238 327 363 713 1240 1320 2500 4870
2021-02-27 06:30 5.74 827 9220 (1945) 92 (1964) 1160 141 238 327 363 713 1240 1320 2500 4870
2021-02-27 05:30 5.74 827 9220 (1945) 92 (1964) 1160 141 238 327 363 713 1240 1320 2500 4870
2021-02-27 04:30 5.73 821 9220 (1945) 92 (1964) 1160 141 238 327 363 713 1240 1320 2500 4870
2021-02-27 03:30 5.73 821 9220 (1945) 92 (1964) 1160 141 238 327 363 713 1240 1320 2500 4870
2021-02-27 02:30 5.75 834 9220 (1945) 92 (1964) 1160 141 238 327 363 713 1240 1320 2500 4870
2021-02-27 01:30 5.75 834 9220 (1945) 92 (1964) 1160 141 238 327 363 713 1240 1320 2500 4870
2021-02-27 00:30 5.76 841 9220 (1945) 92 (1964) 1160 141 238 327 363 713 1240 1320 2500 4870
2021-02-26 23:30 5.75 834 13300 (2001) 94 (1964) 1280 138 230 307 376 656 1290 1410 2360 5580
2021-02-26 22:30 5.74 827 13300 (2001) 94 (1964) 1280 138 230 307 376 656 1290 1410 2360 5580
2021-02-26 21:30 5.76 841 13300 (2001) 94 (1964) 1280 138 230 307 376 656 1290 1410 2360 5580
2021-02-26 20:30 5.76 841 13300 (2001) 94 (1964) 1280 138 230 307 376 656 1290 1410 2360 5580
2021-02-26 19:30 5.75 834 13300 (2001) 94 (1964) 1280 138 230 307 376 656 1290 1410 2360 5580
2021-02-26 18:30 5.77 848 13300 (2001) 94 (1964) 1280 138 230 307 376 656 1290 1410 2360 5580
2021-02-26 17:30 5.77 848 13300 (2001) 94 (1964) 1280 138 230 307 376 656 1290 1410 2360 5580
2021-02-26 16:30 5.76 841 13300 (2001) 94 (1964) 1280 138 230 307 376 656 1290 1410 2360 5580
2021-02-26 15:30 5.78 855 13300 (2001) 94 (1964) 1280 138 230 307 376 656 1290 1410 2360 5580
2021-02-26 14:30 5.77 848 13300 (2001) 94 (1964) 1280 138 230 307 376 656 1290 1410 2360 5580
2021-02-26 13:30 5.78 855 13300 (2001) 94 (1964) 1280 138 230 307 376 656 1290 1410 2360 5580
2021-02-26 12:30 5.78 855 13300 (2001) 94 (1964) 1280 138 230 307 376 656 1290 1410 2360 5580
2021-02-26 11:30 5.79 861 13300 (2001) 94 (1964) 1280 138 230 307 376 656 1290 1410 2360 5580
2021-02-26 10:30 5.78 855 13300 (2001) 94 (1964) 1280 138 230 307 376 656 1290 1410 2360 5580
2021-02-26 09:30 5.78 855 13300 (2001) 94 (1964) 1280 138 230 307 376 656 1290 1410 2360 5580
2021-02-26 08:30 5.79 861 13300 (2001) 94 (1964) 1280 138 230 307 376 656 1290 1410 2360 5580
2021-02-26 07:30 5.79 861 13300 (2001) 94 (1964) 1280 138 230 307 376 656 1290 1410 2360 5580
2021-02-26 06:30 5.78 855 13300 (2001) 94 (1964) 1280 138 230 307 376 656 1290 1410 2360 5580
2021-02-26 05:30 5.80 868 13300 (2001) 94 (1964) 1280 138 230 307 376 656 1290 1410 2360 5580
2021-02-26 04:30 5.79 861 13300 (2001) 94 (1964) 1280 138 230 307 376 656 1290 1410 2360 5580
2021-02-26 03:30 5.80 868 13300 (2001) 94 (1964) 1280 138 230 307 376 656 1290 1410 2360 5580
2021-02-26 02:30 5.80 868 13300 (2001) 94 (1964) 1280 138 230 307 376 656 1290 1410 2360 5580
2021-02-26 01:30 5.79 861 13300 (2001) 94 (1964) 1280 138 230 307 376 656 1290 1410 2360 5580
2021-02-26 00:30 5.79 861 13300 (2001) 94 (1964) 1280 138 230 307 376 656 1290 1410 2360 5580
2021-02-25 23:30 5.78 855 31300 (2018) 95 (1964) 1740 135 223 318 366 642 1360 1570 2630 4880
2021-02-25 22:30 5.79 861 31300 (2018) 95 (1964) 1740 135 223 318 366 642 1360 1570 2630 4880
2021-02-25 21:30 5.79 918 31300 (2018) 95 (1964) 1740 135 223 318 366 642 1360 1570 2630 4880
2021-02-25 20:30 5.80 925 31300 (2018) 95 (1964) 1740 135 223 318 366 642 1360 1570 2630 4880
2021-02-25 19:30 5.80 925 31300 (2018) 95 (1964) 1740 135 223 318 366 642 1360 1570 2630 4880
2021-02-25 18:30 5.82 939 31300 (2018) 95 (1964) 1740 135 223 318 366 642 1360 1570 2630 4880
2021-02-25 17:30 5.81 932 31300 (2018) 95 (1964) 1740 135 223 318 366 642 1360 1570 2630 4880
2021-02-25 16:30 5.79 918 31300 (2018) 95 (1964) 1740 135 223 318 366 642 1360 1570 2630 4880
2021-02-25 15:30 5.82 939 31300 (2018) 95 (1964) 1740 135 223 318 366 642 1360 1570 2630 4880
2021-02-25 14:30 5.80 925 31300 (2018) 95 (1964) 1740 135 223 318 366 642 1360 1570 2630 4880
2021-02-25 13:30 5.81 932 31300 (2018) 95 (1964) 1740 135 223 318 366 642 1360 1570 2630 4880
2021-02-25 12:30 5.84 954 31300 (2018) 95 (1964) 1740 135 223 318 366 642 1360 1570 2630 4880
2021-02-25 11:30 5.81 932 31300 (2018) 95 (1964) 1740 135 223 318 366 642 1360 1570 2630 4880
2021-02-25 10:30 5.82 939 31300 (2018) 95 (1964) 1740 135 223 318 366 642 1360 1570 2630 4880
2021-02-25 09:30 5.83 947 31300 (2018) 95 (1964) 1740 135 223 318 366 642 1360 1570 2630 4880
2021-02-25 08:30 5.82 939 31300 (2018) 95 (1964) 1740 135 223 318 366 642 1360 1570 2630 4880
2021-02-25 07:30 5.83 947 31300 (2018) 95 (1964) 1740 135 223 318 366 642 1360 1570 2630 4880
2021-02-25 06:30 5.84 954 31300 (2018) 95 (1964) 1740 135 223 318 366 642 1360 1570 2630 4880
2021-02-25 05:30 5.82 939 31300 (2018) 95 (1964) 1740 135 223 318 366 642 1360 1570 2630 4880
2021-02-25 04:30 5.83 947 31300 (2018) 95 (1964) 1740 135 223 318 366 642 1360 1570 2630 4880
2021-02-25 03:30 5.84 954 31300 (2018) 95 (1964) 1740 135 223 318 366 642 1360 1570 2630 4880
2021-02-25 02:30 5.83 947 31300 (2018) 95 (1964) 1740 135 223 318 366 642 1360 1570 2630 4880
2021-02-25 01:30 5.83 947 31300 (2018) 95 (1964) 1740 135 223 318 366 642 1360 1570 2630 4880
2021-02-25 00:30 5.84 954 31300 (2018) 95 (1964) 1740 135 223 318 366 642 1360 1570 2630 4880
2021-02-24 23:30 5.85 962 15400 (1985) 95 (1964) 1500 136 231 332 385 665 1400 1710 3330 7150
2021-02-24 22:30 5.84 954 15400 (1985) 95 (1964) 1500 136 231 332 385 665 1400 1710 3330 7150
2021-02-24 21:30 5.85 962 15400 (1985) 95 (1964) 1500 136 231 332 385 665 1400 1710 3330 7150
2021-02-24 20:30 5.85 962 15400 (1985) 95 (1964) 1500 136 231 332 385 665 1400 1710 3330 7150
2021-02-24 19:30 5.84 954 15400 (1985) 95 (1964) 1500 136 231 332 385 665 1400 1710 3330 7150
2021-02-24 18:30 5.83 947 15400 (1985) 95 (1964) 1500 136 231 332 385 665 1400 1710 3330 7150
2021-02-24 17:30 5.84 954 15400 (1985) 95 (1964) 1500 136 231 332 385 665 1400 1710 3330 7150
2021-02-24 16:30 5.86 969 15400 (1985) 95 (1964) 1500 136 231 332 385 665 1400 1710 3330 7150
2021-02-24 15:30 5.84 954 15400 (1985) 95 (1964) 1500 136 231 332 385 665 1400 1710 3330 7150
2021-02-24 14:30 5.84 954 15400 (1985) 95 (1964) 1500 136 231 332 385 665 1400 1710 3330 7150
2021-02-24 13:30 5.83 947 15400 (1985) 95 (1964) 1500 136 231 332 385 665 1400 1710 3330 7150
2021-02-24 12:30 5.85 962 15400 (1985) 95 (1964) 1500 136 231 332 385 665 1400 1710 3330 7150
2021-02-24 11:30 5.86 969 15400 (1985) 95 (1964) 1500 136 231 332 385 665 1400 1710 3330 7150
2021-02-24 10:30 5.85 962 15400 (1985) 95 (1964) 1500 136 231 332 385 665 1400 1710 3330 7150
2021-02-24 09:30 5.84 954 15400 (1985) 95 (1964) 1500 136 231 332 385 665 1400 1710 3330 7150
2021-02-24 08:30 5.85 962 15400 (1985) 95 (1964) 1500 136 231 332 385 665 1400 1710 3330 7150
2021-02-24 07:30 5.84 954 15400 (1985) 95 (1964) 1500 136 231 332 385 665 1400 1710 3330 7150
2021-02-24 06:30 5.83 947 15400 (1985) 95 (1964) 1500 136 231 332 385 665 1400 1710 3330 7150
2021-02-24 05:30 5.85 962 15400 (1985) 95 (1964) 1500 136 231 332 385 665 1400 1710 3330 7150
2021-02-24 04:30 5.82 939 15400 (1985) 95 (1964) 1500 136 231 332 385 665 1400 1710 3330 7150
2021-02-24 03:30 5.83 947 15400 (1985) 95 (1964) 1500 136 231 332 385 665 1400 1710 3330 7150
2021-02-24 02:30 5.84 954 15400 (1985) 95 (1964) 1500 136 231 332 385 665 1400 1710 3330 7150
2021-02-24 01:30 5.82 939 15400 (1985) 95 (1964) 1500 136 231 332 385 665 1400 1710 3330 7150
2021-02-24 00:30 5.82 939 15400 (1985) 95 (1964) 1500 136 231 332 385 665 1400 1710 3330 7150
2021-02-23 23:30 5.82 939 7760 (1945) 100 (1964) 1270 139 219 335 378 652 1500 1800 3470 5200
2021-02-23 22:30 5.81 932 7760 (1945) 100 (1964) 1270 139 219 335 378 652 1500 1800 3470 5200
2021-02-23 21:30 5.82 939 7760 (1945) 100 (1964) 1270 139 219 335 378 652 1500 1800 3470 5200
2021-02-23 20:30 5.82 939 7760 (1945) 100 (1964) 1270 139 219 335 378 652 1500 1800 3470 5200
2021-02-23 19:30 5.81 932 7760 (1945) 100 (1964) 1270 139 219 335 378 652 1500 1800 3470 5200
2021-02-23 18:30 5.80 925 7760 (1945) 100 (1964) 1270 139 219 335 378 652 1500 1800 3470 5200
2021-02-23 17:30 5.78 911 7760 (1945) 100 (1964) 1270 139 219 335 378 652 1500 1800 3470 5200
2021-02-23 16:30 5.77 903 7760 (1945) 100 (1964) 1270 139 219 335 378 652 1500 1800 3470 5200
2021-02-23 15:30 5.76 896 7760 (1945) 100 (1964) 1270 139 219 335 378 652 1500 1800 3470 5200
2021-02-23 14:30 5.78 911 7760 (1945) 100 (1964) 1270 139 219 335 378 652 1500 1800 3470 5200
2021-02-23 13:30 5.77 903 7760 (1945) 100 (1964) 1270 139 219 335 378 652 1500 1800 3470 5200
2021-02-23 12:30 5.76 896 7760 (1945) 100 (1964) 1270 139 219 335 378 652 1500 1800 3470 5200
2021-02-23 11:30 5.74 882 7760 (1945) 100 (1964) 1270 139 219 335 378 652 1500 1800 3470 5200
2021-02-23 10:30 5.72 868 7760 (1945) 100 (1964) 1270 139 219 335 378 652 1500 1800 3470 5200
2021-02-23 09:30 5.72 868 7760 (1945) 100 (1964) 1270 139 219 335 378 652 1500 1800 3470 5200
2021-02-23 08:30 5.70 855 7760 (1945) 100 (1964) 1270 139 219 335 378 652 1500 1800 3470 5200
2021-02-23 07:30 5.69 848 7760 (1945) 100 (1964) 1270 139 219 335 378 652 1500 1800 3470 5200
2021-02-23 06:30 5.68 841 7760 (1945) 100 (1964) 1270 139 219 335 378 652 1500 1800 3470 5200
2021-02-23 05:30 5.67 834 7760 (1945) 100 (1964) 1270 139 219 335 378 652 1500 1800 3470 5200
2021-02-23 04:30 5.66 827 7760 (1945) 100 (1964) 1270 139 219 335 378 652 1500 1800 3470 5200
2021-02-23 03:30 5.64 814 7760 (1945) 100 (1964) 1270 139 219 335 378 652 1500 1800 3470 5200
2021-02-23 02:30 5.66 827 7760 (1945) 100 (1964) 1270 139 219 335 378 652 1500 1800 3470 5200
2021-02-23 00:30 5.62 801 7760 (1945) 100 (1964) 1270 139 219 335 378 652 1500 1800 3470 5200
2021-02-22 23:30 5.62 801 18500 (1997) 100 (1964) 1490 137 210 352 400 675 1320 1470 2550 6790
2021-02-22 22:30 5.61 794 18500 (1997) 100 (1964) 1490 137 210 352 400 675 1320 1470 2550 6790
2021-02-22 21:30 5.60 788 18500 (1997) 100 (1964) 1490 137 210 352 400 675 1320 1470 2550 6790
2021-02-22 20:30 5.59 781 18500 (1997) 100 (1964) 1490 137 210 352 400 675 1320 1470 2550 6790
2021-02-22 19:30 5.59 781 18500 (1997) 100 (1964) 1490 137 210 352 400 675 1320 1470 2550 6790
2021-02-22 18:30 5.59 781 18500 (1997) 100 (1964) 1490 137 210 352 400 675 1320 1470 2550 6790
2021-02-22 17:30 5.56 762 18500 (1997) 100 (1964) 1490 137 210 352 400 675 1320 1470 2550 6790
2021-02-22 16:30 5.58 775 18500 (1997) 100 (1964) 1490 137 210 352 400 675 1320 1470 2550 6790
2021-02-22 15:30 5.55 756 18500 (1997) 100 (1964) 1490 137 210 352 400 675 1320 1470 2550 6790
2021-02-22 14:30 5.55 756 18500 (1997) 100 (1964) 1490 137 210 352 400 675 1320 1470 2550 6790
2021-02-22 13:30 5.56 762 18500 (1997) 100 (1964) 1490 137 210 352 400 675 1320 1470 2550 6790
2021-02-22 12:30 5.56 762 18500 (1997) 100 (1964) 1490 137 210 352 400 675 1320 1470 2550 6790
2021-02-22 11:30 5.56 762 18500 (1997) 100 (1964) 1490 137 210 352 400 675 1320 1470 2550 6790
2021-02-22 10:30 5.55 756 18500 (1997) 100 (1964) 1490 137 210 352 400 675 1320 1470 2550 6790
2021-02-22 09:30 5.55 756 18500 (1997) 100 (1964) 1490 137 210 352 400 675 1320 1470 2550 6790
2021-02-22 08:30 5.56 762 18500 (1997) 100 (1964) 1490 137 210 352 400 675 1320 1470 2550 6790
2021-02-22 07:30 5.57 768 18500 (1997) 100 (1964) 1490 137 210 352 400 675 1320 1470 2550 6790
2021-02-22 06:30 5.57 768 18500 (1997) 100 (1964) 1490 137 210 352 400 675 1320 1470 2550 6790
2021-02-22 05:30 5.57 768 18500 (1997) 100 (1964) 1490 137 210 352 400 675 1320 1470 2550 6790
2021-02-22 04:30 5.53 743 18500 (1997) 100 (1964) 1490 137 210 352 400 675 1320 1470 2550 6790
2021-02-22 03:30 5.55 756 18500 (1997) 100 (1964) 1490 137 210 352 400 675 1320 1470 2550 6790
2021-02-22 02:30 5.56 762 18500 (1997) 100 (1964) 1490 137 210 352 400 675 1320 1470 2550 6790
2021-02-22 01:30 5.56 762 18500 (1997) 100 (1964) 1490 137 210 352 400 675 1320 1470 2550 6790
2021-02-22 00:30 5.55 756 18500 (1997) 100 (1964) 1490 137 210 352 400 675 1320 1470 2550 6790
2021-02-21 23:30 5.57 768 31400 (1951) 100 (1964) 1520 138 210 360 389 708 1290 1480 2920 4810
2021-02-21 22:30 5.55 756 31400 (1951) 100 (1964) 1520 138 210 360 389 708 1290 1480 2920 4810
2021-02-21 21:30 5.54 749 31400 (1951) 100 (1964) 1520 138 210 360 389 708 1290 1480 2920 4810
2021-02-21 20:30 5.55 756 31400 (1951) 100 (1964) 1520 138 210 360 389 708 1290 1480 2920 4810
2021-02-21 19:30 5.54 749 31400 (1951) 100 (1964) 1520 138 210 360 389 708 1290 1480 2920 4810
2021-02-21 18:30 5.54 749 31400 (1951) 100 (1964) 1520 138 210 360 389 708 1290 1480 2920 4810
2021-02-21 17:30 5.53 743 31400 (1951) 100 (1964) 1520 138 210 360 389 708 1290 1480 2920 4810
2021-02-21 16:30 5.53 743 31400 (1951) 100 (1964) 1520 138 210 360 389 708 1290 1480 2920 4810
2021-02-21 15:30 5.55 756 31400 (1951) 100 (1964) 1520 138 210 360 389 708 1290 1480 2920 4810
2021-02-21 14:30 5.52 737 31400 (1951) 100 (1964) 1520 138 210 360 389 708 1290 1480 2920 4810
2021-02-21 13:30 5.54 749 31400 (1951) 100 (1964) 1520 138 210 360 389 708 1290 1480 2920 4810
2021-02-21 12:30 5.54 749 31400 (1951) 100 (1964) 1520 138 210 360 389 708 1290 1480 2920 4810
2021-02-21 11:30 5.54 749 31400 (1951) 100 (1964) 1520 138 210 360 389 708 1290 1480 2920 4810
2021-02-21 10:30 5.54 749 31400 (1951) 100 (1964) 1520 138 210 360 389 708 1290 1480 2920 4810
2021-02-21 09:30 5.55 756 31400 (1951) 100 (1964) 1520 138 210 360 389 708 1290 1480 2920 4810
2021-02-21 08:30 5.54 749 31400 (1951) 100 (1964) 1520 138 210 360 389 708 1290 1480 2920 4810
2021-02-21 07:30 5.54 749 31400 (1951) 100 (1964) 1520 138 210 360 389 708 1290 1480 2920 4810
2021-02-21 06:30 5.54 749 31400 (1951) 100 (1964) 1520 138 210 360 389 708 1290 1480 2920 4810
2021-02-21 05:30 5.53 743 31400 (1951) 100 (1964) 1520 138 210 360 389 708 1290 1480 2920 4810
2021-02-21 04:30 5.54 749 31400 (1951) 100 (1964) 1520 138 210 360 389 708 1290 1480 2920 4810
2021-02-21 03:30 5.54 749 31400 (1951) 100 (1964) 1520 138 210 360 389 708 1290 1480 2920 4810
2021-02-21 02:30 5.53 743 31400 (1951) 100 (1964) 1520 138 210 360 389 708 1290 1480 2920 4810
2021-02-21 01:30 5.53 743 31400 (1951) 100 (1964) 1520 138 210 360 389 708 1290 1480 2920 4810
2021-02-21 00:30 5.53 743 31400 (1951) 100 (1964) 1520 138 210 360 389 708 1290 1480 2920 4810
2021-02-20 23:30 5.53 743 19700 (1951) 100 (1954) 1220 139 216 343 385 644 1130 1180 2200 4420
2021-02-20 22:30 5.54 749 19700 (1951) 100 (1954) 1220 139 216 343 385 644 1130 1180 2200 4420
2021-02-20 21:30 5.55 756 19700 (1951) 100 (1954) 1220 139 216 343 385 644 1130 1180 2200 4420
2021-02-20 20:30 5.53 743 19700 (1951) 100 (1954) 1220 139 216 343 385 644 1130 1180 2200 4420
2021-02-20 19:30 5.53 743 19700 (1951) 100 (1954) 1220 139 216 343 385 644 1130 1180 2200 4420
2021-02-20 18:30 5.54 749 19700 (1951) 100 (1954) 1220 139 216 343 385 644 1130 1180 2200 4420
2021-02-20 17:30 5.52 737 19700 (1951) 100 (1954) 1220 139 216 343 385 644 1130 1180 2200 4420
2021-02-20 16:30 5.53 743 19700 (1951) 100 (1954) 1220 139 216 343 385 644 1130 1180 2200 4420
2021-02-20 15:30 5.54 749 19700 (1951) 100 (1954) 1220 139 216 343 385 644 1130 1180 2200 4420
2021-02-20 14:30 5.52 737 19700 (1951) 100 (1954) 1220 139 216 343 385 644 1130 1180 2200 4420
2021-02-20 13:30 5.52 737 19700 (1951) 100 (1954) 1220 139 216 343 385 644 1130 1180 2200 4420
2021-02-20 12:30 5.54 749 19700 (1951) 100 (1954) 1220 139 216 343 385 644 1130 1180 2200 4420
2021-02-20 11:30 5.53 743 19700 (1951) 100 (1954) 1220 139 216 343 385 644 1130 1180 2200 4420
2021-02-20 10:30 5.53 743 19700 (1951) 100 (1954) 1220 139 216 343 385 644 1130 1180 2200 4420
2021-02-20 09:30 5.53 743 19700 (1951) 100 (1954) 1220 139 216 343 385 644 1130 1180 2200 4420
2021-02-20 08:30 5.55 756 19700 (1951) 100 (1954) 1220 139 216 343 385 644 1130 1180 2200 4420
2021-02-20 07:30 5.54 749 19700 (1951) 100 (1954) 1220 139 216 343 385 644 1130 1180 2200 4420
2021-02-20 06:30 5.54 749 19700 (1951) 100 (1954) 1220 139 216 343 385 644 1130 1180 2200 4420
2021-02-20 05:30 5.55 756 19700 (1951) 100 (1954) 1220 139 216 343 385 644 1130 1180 2200 4420
2021-02-20 04:30 5.55 756 19700 (1951) 100 (1954) 1220 139 216 343 385 644 1130 1180 2200 4420
2021-02-20 03:30 5.56 762 19700 (1951) 100 (1954) 1220 139 216 343 385 644 1130 1180 2200 4420
2021-02-20 02:30 5.55 756 19700 (1951) 100 (1954) 1220 139 216 343 385 644 1130 1180 2200 4420
2021-02-20 01:30 5.57 768 19700 (1951) 100 (1954) 1220 139 216 343 385 644 1130 1180 2200 4420
2021-02-20 00:30 5.54 749 19700 (1951) 100 (1954) 1220 139 216 343 385 644 1130 1180 2200 4420
2021-02-19 23:30 5.56 762 24800 (1938) 100 (1954) 1400 146 227 344 394 667 1140 1260 2230 3900
2021-02-19 22:30 5.56 762 24800 (1938) 100 (1954) 1400 146 227 344 394 667 1140 1260 2230 3900
2021-02-19 21:30 5.56 762 24800 (1938) 100 (1954) 1400 146 227 344 394 667 1140 1260 2230 3900
2021-02-19 19:30 5.55 756 24800 (1938) 100 (1954) 1400 146 227 344 394 667 1140 1260 2230 3900
2021-02-19 18:30 5.56 762 24800 (1938) 100 (1954) 1400 146 227 344 394 667 1140 1260 2230 3900
2021-02-19 17:30 5.54 749 24800 (1938) 100 (1954) 1400 146 227 344 394 667 1140 1260 2230 3900
2021-02-19 16:30 5.55 756 24800 (1938) 100 (1954) 1400 146 227 344 394 667 1140 1260 2230 3900
2021-02-19 15:30 5.56 762 24800 (1938) 100 (1954) 1400 146 227 344 394 667 1140 1260 2230 3900
2021-02-19 14:30 5.55 756 24800 (1938) 100 (1954) 1400 146 227 344 394 667 1140 1260 2230 3900
2021-02-19 13:30 5.56 762 24800 (1938) 100 (1954) 1400 146 227 344 394 667 1140 1260 2230 3900
2021-02-19 12:30 5.55 756 24800 (1938) 100 (1954) 1400 146 227 344 394 667 1140 1260 2230 3900
2021-02-19 11:30 5.56 762 24800 (1938) 100 (1954) 1400 146 227 344 394 667 1140 1260 2230 3900
2021-02-19 10:30 5.56 762 24800 (1938) 100 (1954) 1400 146 227 344 394 667 1140 1260 2230 3900
2021-02-19 09:30 5.57 768 24800 (1938) 100 (1954) 1400 146 227 344 394 667 1140 1260 2230 3900
2021-02-19 08:30 5.56 762 24800 (1938) 100 (1954) 1400 146 227 344 394 667 1140 1260 2230 3900
2021-02-19 07:30 5.57 768 24800 (1938) 100 (1954) 1400 146 227 344 394 667 1140 1260 2230 3900
2021-02-19 06:30 5.57 768 24800 (1938) 100 (1954) 1400 146 227 344 394 667 1140 1260 2230 3900
2021-02-19 05:30 5.56 762 24800 (1938) 100 (1954) 1400 146 227 344 394 667 1140 1260 2230 3900
2021-02-19 04:30 5.58 775 24800 (1938) 100 (1954) 1400 146 227 344 394 667 1140 1260 2230 3900
2021-02-19 03:30 5.57 768 24800 (1938) 100 (1954) 1400 146 227 344 394 667 1140 1260 2230 3900
2021-02-19 02:30 5.58 775 24800 (1938) 100 (1954) 1400 146 227 344 394 667 1140 1260 2230 3900
2021-02-19 01:30 5.58 775 24800 (1938) 100 (1954) 1400 146 227 344 394 667 1140 1260 2230 3900
2021-02-19 00:30 5.59 781 24800 (1938) 100 (1954) 1400 146 227 344 394 667 1140 1260 2230 3900
2021-02-18 23:30 5.59 781 34700 (1938) 100 (1954) 1520 142 216 335 368 648 1200 1400 2610 4590
2021-02-18 22:30 5.58 775 34700 (1938) 100 (1954) 1520 142 216 335 368 648 1200 1400 2610 4590
2021-02-18 21:30 5.59 781 34700 (1938) 100 (1954) 1520 142 216 335 368 648 1200 1400 2610 4590
2021-02-18 20:30 5.59 781 34700 (1938) 100 (1954) 1520 142 216 335 368 648 1200 1400 2610 4590
2021-02-18 19:30 5.59 781 34700 (1938) 100 (1954) 1520 142 216 335 368 648 1200 1400 2610 4590
2021-02-18 18:30 5.59 781 34700 (1938) 100 (1954) 1520 142 216 335 368 648 1200 1400 2610 4590
2021-02-18 17:30 5.59 781 34700 (1938) 100 (1954) 1520 142 216 335 368 648 1200 1400 2610 4590
2021-02-18 16:30 5.59 781 34700 (1938) 100 (1954) 1520 142 216 335 368 648 1200 1400 2610 4590
2021-02-18 15:30 5.60 788 34700 (1938) 100 (1954) 1520 142 216 335 368 648 1200 1400 2610 4590
2021-02-18 14:30 5.60 788 34700 (1938) 100 (1954) 1520 142 216 335 368 648 1200 1400 2610 4590
2021-02-18 13:30 5.60 788 34700 (1938) 100 (1954) 1520 142 216 335 368 648 1200 1400 2610 4590
2021-02-18 12:30 5.60 788 34700 (1938) 100 (1954) 1520 142 216 335 368 648 1200 1400 2610 4590
2021-02-18 11:30 5.59 781 34700 (1938) 100 (1954) 1520 142 216 335 368 648 1200 1400 2610 4590
2021-02-18 10:30 5.60 788 34700 (1938) 100 (1954) 1520 142 216 335 368 648 1200 1400 2610 4590
2021-02-18 09:30 5.61 794 34700 (1938) 100 (1954) 1520 142 216 335 368 648 1200 1400 2610 4590
2021-02-18 08:30 5.61 794 34700 (1938) 100 (1954) 1520 142 216 335 368 648 1200 1400 2610 4590
2021-02-18 07:30 5.62 801 34700 (1938) 100 (1954) 1520 142 216 335 368 648 1200 1400 2610 4590
2021-02-18 06:30 5.62 801 34700 (1938) 100 (1954) 1520 142 216 335 368 648 1200 1400 2610 4590
2021-02-18 05:30 5.63 807 34700 (1938) 100 (1954) 1520 142 216 335 368 648 1200 1400 2610 4590
2021-02-18 04:30 5.63 807 34700 (1938) 100 (1954) 1520 142 216 335 368 648 1200 1400 2610 4590
2021-02-18 03:30 5.62 801 34700 (1938) 100 (1954) 1520 142 216 335 368 648 1200 1400 2610 4590
2021-02-18 02:30 5.64 814 34700 (1938) 100 (1954) 1520 142 216 335 368 648 1200 1400 2610 4590
2021-02-18 01:30 5.65 821 34700 (1938) 100 (1954) 1520 142 216 335 368 648 1200 1400 2610 4590
2021-02-18 00:30 5.64 814 34700 (1938) 100 (1954) 1520 142 216 335 368 648 1200 1400 2610 4590
2021-02-17 23:30 5.65 821 24400 (1938) 100 (1954) 1410 139 227 314 352 641 1140 1510 2930 6650
2021-02-17 22:30 5.62 801 24400 (1938) 100 (1954) 1410 139 227 314 352 641 1140 1510 2930 6650
2021-02-17 21:30 5.64 814 24400 (1938) 100 (1954) 1410 139 227 314 352 641 1140 1510 2930 6650
2021-02-17 20:30 5.65 821 24400 (1938) 100 (1954) 1410 139 227 314 352 641 1140 1510 2930 6650
2021-02-17 19:30 5.67 834 24400 (1938) 100 (1954) 1410 139 227 314 352 641 1140 1510 2930 6650
2021-02-17 18:30 5.65 821 24400 (1938) 100 (1954) 1410 139 227 314 352 641 1140 1510 2930 6650
2021-02-17 17:30 5.64 814 24400 (1938) 100 (1954) 1410 139 227 314 352 641 1140 1510 2930 6650
2021-02-17 16:30 5.65 821 24400 (1938) 100 (1954) 1410 139 227 314 352 641 1140 1510 2930 6650
2021-02-17 15:30 5.64 814 24400 (1938) 100 (1954) 1410 139 227 314 352 641 1140 1510 2930 6650
2021-02-17 14:30 5.65 821 24400 (1938) 100 (1954) 1410 139 227 314 352 641 1140 1510 2930 6650
2021-02-17 13:30 5.64 814 24400 (1938) 100 (1954) 1410 139 227 314 352 641 1140 1510 2930 6650
2021-02-17 12:30 5.66 827 24400 (1938) 100 (1954) 1410 139 227 314 352 641 1140 1510 2930 6650
2021-02-17 11:30 5.65 821 24400 (1938) 100 (1954) 1410 139 227 314 352 641 1140 1510 2930 6650
2021-02-17 10:30 5.64 814 24400 (1938) 100 (1954) 1410 139 227 314 352 641 1140 1510 2930 6650
2021-02-17 09:30 5.65 821 24400 (1938) 100 (1954) 1410 139 227 314 352 641 1140 1510 2930 6650
2021-02-17 08:30 5.64 814 24400 (1938) 100 (1954) 1410 139 227 314 352 641 1140 1510 2930 6650
2021-02-17 07:30 5.64 814 24400 (1938) 100 (1954) 1410 139 227 314 352 641 1140 1510 2930 6650
2021-02-17 06:30 5.64 814 24400 (1938) 100 (1954) 1410 139 227 314 352 641 1140 1510 2930 6650
2021-02-17 05:30 5.65 821 24400 (1938) 100 (1954) 1410 139 227 314 352 641 1140 1510 2930 6650
2021-02-17 04:30 5.65 821 24400 (1938) 100 (1954) 1410 139 227 314 352 641 1140 1510 2930 6650
2021-02-17 03:30 5.64 814 24400 (1938) 100 (1954) 1410 139 227 314 352 641 1140 1510 2930 6650
2021-02-17 02:30 5.65 821 24400 (1938) 100 (1954) 1410 139 227 314 352 641 1140 1510 2930 6650
2021-02-17 01:30 5.67 834 24400 (1938) 100 (1954) 1410 139 227 314 352 641 1140 1510 2930 6650
2021-02-17 00:30 5.66 827 24400 (1938) 100 (1954) 1410 139 227 314 352 641 1140 1510 2930 6650
2021-02-16 23:30 5.66 827 13300 (1949) 96 (1940) 1280 141 197 288 346 656 1030 1280 2200 6900
2021-02-16 22:30 5.67 834 13300 (1949) 96 (1940) 1280 141 197 288 346 656 1030 1280 2200 6900
2021-02-16 21:30 5.69 848 13300 (1949) 96 (1940) 1280 141 197 288 346 656 1030 1280 2200 6900
2021-02-16 20:30 5.70 855 13300 (1949) 96 (1940) 1280 141 197 288 346 656 1030 1280 2200 6900
2021-02-16 19:30 5.72 868 13300 (1949) 96 (1940) 1280 141 197 288 346 656 1030 1280 2200 6900
2021-02-16 18:30 5.72 868 13300 (1949) 96 (1940) 1280 141 197 288 346 656 1030 1280 2200 6900
2021-02-16 17:30 5.72 868 13300 (1949) 96 (1940) 1280 141 197 288 346 656 1030 1280 2200 6900
2021-02-16 16:30 5.68 841 13300 (1949) 96 (1940) 1280 141 197 288 346 656 1030 1280 2200 6900
2021-02-16 15:30 5.70 855 13300 (1949) 96 (1940) 1280 141 197 288 346 656 1030 1280 2200 6900
2021-02-16 14:30 5.72 868 13300 (1949) 96 (1940) 1280 141 197 288 346 656 1030 1280 2200 6900
2021-02-16 13:30 5.67 834 13300 (1949) 96 (1940) 1280 141 197 288 346 656 1030 1280 2200 6900
2021-02-16 12:30 5.59 781 13300 (1949) 96 (1940) 1280 141 197 288 346 656 1030 1280 2200 6900
2021-02-16 11:30 5.57 768 13300 (1949) 96 (1940) 1280 141 197 288 346 656 1030 1280 2200 6900
2021-02-16 10:30 5.66 827 13300 (1949) 96 (1940) 1280 141 197 288 346 656 1030 1280 2200 6900
2021-02-16 09:30 5.64 814 13300 (1949) 96 (1940) 1280 141 197 288 346 656 1030 1280 2200 6900
2021-02-16 08:30 5.60 788 13300 (1949) 96 (1940) 1280 141 197 288 346 656 1030 1280 2200 6900
2021-02-16 07:30 5.62 801 13300 (1949) 96 (1940) 1280 141 197 288 346 656 1030 1280 2200 6900
2021-02-16 06:30 5.61 794 13300 (1949) 96 (1940) 1280 141 197 288 346 656 1030 1280 2200 6900
2021-02-16 05:30 5.65 821 13300 (1949) 96 (1940) 1280 141 197 288 346 656 1030 1280 2200 6900
2021-02-16 04:30 5.65 821 13300 (1949) 96 (1940) 1280 141 197 288 346 656 1030 1280 2200 6900
2021-02-16 03:30 5.64 814 13300 (1949) 96 (1940) 1280 141 197 288 346 656 1030 1280 2200 6900
2021-02-16 02:30 5.65 821 13300 (1949) 96 (1940) 1280 141 197 288 346 656 1030 1280 2200 6900
2021-02-16 00:30 5.66 827 13300 (1949) 96 (1940) 1280 141 197 288 346 656 1030 1280 2200 6900
2021-02-15 23:30 5.66 827 9380 (1989) 93 (1940) 1090 141 178 285 338 624 1020 1160 2390 3760
2021-02-15 22:30 5.67 834 9380 (1989) 93 (1940) 1090 141 178 285 338 624 1020 1160 2390 3760
2021-02-15 21:30 5.67 834 9380 (1989) 93 (1940) 1090 141 178 285 338 624 1020 1160 2390 3760
2021-02-15 20:30 5.66 827 9380 (1989) 93 (1940) 1090 141 178 285 338 624 1020 1160 2390 3760
2021-02-15 19:30 5.64 814 9380 (1989) 93 (1940) 1090 141 178 285 338 624 1020 1160 2390 3760
2021-02-15 18:30 5.61 794 9380 (1989) 93 (1940) 1090 141 178 285 338 624 1020 1160 2390 3760
2021-02-15 17:30 5.60 788 9380 (1989) 93 (1940) 1090 141 178 285 338 624 1020 1160 2390 3760
2021-02-15 16:30 5.57 768 9380 (1989) 93 (1940) 1090 141 178 285 338 624 1020 1160 2390 3760
2021-02-15 15:30 5.60 788 9380 (1989) 93 (1940) 1090 141 178 285 338 624 1020 1160 2390 3760
2021-02-15 14:30 5.60 788 9380 (1989) 93 (1940) 1090 141 178 285 338 624 1020 1160 2390 3760
2021-02-15 13:30 5.64 814 9380 (1989) 93 (1940) 1090 141 178 285 338 624 1020 1160 2390 3760
2021-02-15 12:30 5.62 801 9380 (1989) 93 (1940) 1090 141 178 285 338 624 1020 1160 2390 3760
2021-02-15 11:30 5.50 724 9380 (1989) 93 (1940) 1090 141 178 285 338 624 1020 1160 2390 3760
2021-02-15 10:30 5.51 730 9380 (1989) 93 (1940) 1090 141 178 285 338 624 1020 1160 2390 3760
2021-02-15 09:30 5.53 743 9380 (1989) 93 (1940) 1090 141 178 285 338 624 1020 1160 2390 3760
2021-02-15 08:30 5.54 749 9380 (1989) 93 (1940) 1090 141 178 285 338 624 1020 1160 2390 3760
2021-02-15 07:30 5.56 762 9380 (1989) 93 (1940) 1090 141 178 285 338 624 1020 1160 2390 3760
2021-02-15 06:30 5.58 775 9380 (1989) 93 (1940) 1090 141 178 285 338 624 1020 1160 2390 3760
2021-02-15 05:30 5.60 788 9380 (1989) 93 (1940) 1090 141 178 285 338 624 1020 1160 2390 3760
2021-02-15 04:30 5.61 794 9380 (1989) 93 (1940) 1090 141 178 285 338 624 1020 1160 2390 3760
2021-02-15 03:30 5.60 788 9380 (1989) 93 (1940) 1090 141 178 285 338 624 1020 1160 2390 3760
2021-02-15 02:30 5.62 801 9380 (1989) 93 (1940) 1090 141 178 285 338 624 1020 1160 2390 3760
2021-02-15 01:30 5.63 807 9380 (1989) 93 (1940) 1090 141 178 285 338 624 1020 1160 2390 3760
2021-02-15 00:30 5.65 821 9380 (1989) 93 (1940) 1090 141 178 285 338 624 1020 1160 2390 3760
2021-02-14 23:30 5.66 827 7980 (1950) 98 (1940) 985 145 172 283 329 638 1080 1160 2370 3160
2021-02-14 22:30 5.67 834 7980 (1950) 98 (1940) 985 145 172 283 329 638 1080 1160 2370 3160
2021-02-14 21:30 5.66 827 7980 (1950) 98 (1940) 985 145 172 283 329 638 1080 1160 2370 3160
2021-02-14 20:30 5.68 841 7980 (1950) 98 (1940) 985 145 172 283 329 638 1080 1160 2370 3160
2021-02-14 19:30 5.67 834 7980 (1950) 98 (1940) 985 145 172 283 329 638 1080 1160 2370 3160
2021-02-14 18:30 5.68 841 7980 (1950) 98 (1940) 985 145 172 283 329 638 1080 1160 2370 3160
2021-02-14 17:30 5.68 841 7980 (1950) 98 (1940) 985 145 172 283 329 638 1080 1160 2370 3160
2021-02-14 16:30 5.69 848 7980 (1950) 98 (1940) 985 145 172 283 329 638 1080 1160 2370 3160
2021-02-14 15:30 5.67 834 7980 (1950) 98 (1940) 985 145 172 283 329 638 1080 1160 2370 3160
2021-02-14 14:30 5.69 848 7980 (1950) 98 (1940) 985 145 172 283 329 638 1080 1160 2370 3160
2021-02-14 13:30 5.68 841 7980 (1950) 98 (1940) 985 145 172 283 329 638 1080 1160 2370 3160
2021-02-14 12:30 5.69 848 7980 (1950) 98 (1940) 985 145 172 283 329 638 1080 1160 2370 3160
2021-02-14 11:30 5.70 855 7980 (1950) 98 (1940) 985 145 172 283 329 638 1080 1160 2370 3160
2021-02-14 10:30 5.69 848 7980 (1950) 98 (1940) 985 145 172 283 329 638 1080 1160 2370 3160
2021-02-14 09:30 5.69 848 7980 (1950) 98 (1940) 985 145 172 283 329 638 1080 1160 2370 3160
2021-02-14 08:30 5.69 848 7980 (1950) 98 (1940) 985 145 172 283 329 638 1080 1160 2370 3160
2021-02-14 07:30 5.68 841 7980 (1950) 98 (1940) 985 145 172 283 329 638 1080 1160 2370 3160
2021-02-14 06:30 5.70 855 7980 (1950) 98 (1940) 985 145 172 283 329 638 1080 1160 2370 3160
2021-02-14 05:30 5.68 841 7980 (1950) 98 (1940) 985 145 172 283 329 638 1080 1160 2370 3160
2021-02-14 04:30 5.70 855 7980 (1950) 98 (1940) 985 145 172 283 329 638 1080 1160 2370 3160
2021-02-14 03:30 5.70 855 7980 (1950) 98 (1940) 985 145 172 283 329 638 1080 1160 2370 3160
2021-02-14 02:30 5.70 855 7980 (1950) 98 (1940) 985 145 172 283 329 638 1080 1160 2370 3160
2021-02-14 01:30 5.69 848 7980 (1950) 98 (1940) 985 145 172 283 329 638 1080 1160 2370 3160
2021-02-14 00:30 5.69 848 7980 (1950) 98 (1940) 985 145 172 283 329 638 1080 1160 2370 3160
2021-02-13 23:30 5.69 848 7680 (1950) 100 (1954) 872 146 172 280 300 622 988 1100 1490 3350
2021-02-13 22:30 5.71 861 7680 (1950) 100 (1954) 872 146 172 280 300 622 988 1100 1490 3350
2021-02-13 21:30 5.69 848 7680 (1950) 100 (1954) 872 146 172 280 300 622 988 1100 1490 3350
2021-02-13 20:30 5.70 855 7680 (1950) 100 (1954) 872 146 172 280 300 622 988 1100 1490 3350
2021-02-13 19:30 5.71 861 7680 (1950) 100 (1954) 872 146 172 280 300 622 988 1100 1490 3350
2021-02-13 18:30 5.71 861 7680 (1950) 100 (1954) 872 146 172 280 300 622 988 1100 1490 3350
2021-02-13 17:30 5.71 861 7680 (1950) 100 (1954) 872 146 172 280 300 622 988 1100 1490 3350
2021-02-13 16:30 5.72 868 7680 (1950) 100 (1954) 872 146 172 280 300 622 988 1100 1490 3350
2021-02-13 15:30 5.72 868 7680 (1950) 100 (1954) 872 146 172 280 300 622 988 1100 1490 3350
2021-02-13 14:30 5.73 875 7680 (1950) 100 (1954) 872 146 172 280 300 622 988 1100 1490 3350
2021-02-13 13:30 5.71 861 7680 (1950) 100 (1954) 872 146 172 280 300 622 988 1100 1490 3350
2021-02-13 12:30 5.73 875 7680 (1950) 100 (1954) 872 146 172 280 300 622 988 1100 1490 3350
2021-02-13 11:30 5.73 875 7680 (1950) 100 (1954) 872 146 172 280 300 622 988 1100 1490 3350
2021-02-13 10:30 5.72 868 7680 (1950) 100 (1954) 872 146 172 280 300 622 988 1100 1490 3350
2021-02-13 08:30 5.73 875 7680 (1950) 100 (1954) 872 146 172 280 300 622 988 1100 1490 3350
2021-02-13 07:30 5.72 868 7680 (1950) 100 (1954) 872 146 172 280 300 622 988 1100 1490 3350
2021-02-13 06:30 5.75 889 7680 (1950) 100 (1954) 872 146 172 280 300 622 988 1100 1490 3350
2021-02-13 05:30 5.75 889 7680 (1950) 100 (1954) 872 146 172 280 300 622 988 1100 1490 3350
2021-02-13 04:30 5.74 882 7680 (1950) 100 (1954) 872 146 172 280 300 622 988 1100 1490 3350
2021-02-13 03:30 5.75 889 7680 (1950) 100 (1954) 872 146 172 280 300 622 988 1100 1490 3350
2021-02-13 02:30 5.75 889 7680 (1950) 100 (1954) 872 146 172 280 300 622 988 1100 1490 3350
2021-02-13 01:30 5.74 882 7680 (1950) 100 (1954) 872 146 172 280 300 622 988 1100 1490 3350
2021-02-13 00:30 5.76 896 7680 (1950) 100 (1954) 872 146 172 280 300 622 988 1100 1490 3350
2021-02-12 23:30 5.75 889 5990 (2009) 100 (1954) 801 135 176 280 296 575 957 1110 1390 2040
2021-02-12 22:30 5.75 889 5990 (2009) 100 (1954) 801 135 176 280 296 575 957 1110 1390 2040
2021-02-12 21:30 5.76 896 5990 (2009) 100 (1954) 801 135 176 280 296 575 957 1110 1390 2040
2021-02-12 20:30 5.77 903 5990 (2009) 100 (1954) 801 135 176 280 296 575 957 1110 1390 2040
2021-02-12 19:30 5.76 896 5990 (2009) 100 (1954) 801 135 176 280 296 575 957 1110 1390 2040
2021-02-12 18:30 5.76 896 5990 (2009) 100 (1954) 801 135 176 280 296 575 957 1110 1390 2040
2021-02-12 17:30 5.75 889 5990 (2009) 100 (1954) 801 135 176 280 296 575 957 1110 1390 2040
2021-02-12 16:30 5.78 911 5990 (2009) 100 (1954) 801 135 176 280 296 575 957 1110 1390 2040
2021-02-12 15:30 5.77 903 5990 (2009) 100 (1954) 801 135 176 280 296 575 957 1110 1390 2040
2021-02-12 14:30 5.75 889 5990 (2009) 100 (1954) 801 135 176 280 296 575 957 1110 1390 2040
2021-02-12 13:30 5.76 896 5990 (2009) 100 (1954) 801 135 176 280 296 575 957 1110 1390 2040
2021-02-12 12:30 5.77 903 5990 (2009) 100 (1954) 801 135 176 280 296 575 957 1110 1390 2040
2021-02-12 11:30 5.77 903 5990 (2009) 100 (1954) 801 135 176 280 296 575 957 1110 1390 2040
2021-02-12 10:30 5.76 896 5990 (2009) 100 (1954) 801 135 176 280 296 575 957 1110 1390 2040
2021-02-12 09:30 5.78 911 5990 (2009) 100 (1954) 801 135 176 280 296 575 957 1110 1390 2040
2021-02-12 08:30 5.77 903 5990 (2009) 100 (1954) 801 135 176 280 296 575 957 1110 1390 2040
2021-02-12 07:30 5.75 889 5990 (2009) 100 (1954) 801 135 176 280 296 575 957 1110 1390 2040
2021-02-12 06:30 5.78 911 5990 (2009) 100 (1954) 801 135 176 280 296 575 957 1110 1390 2040
2021-02-12 05:30 5.78 911 5990 (2009) 100 (1954) 801 135 176 280 296 575 957 1110 1390 2040
2021-02-12 04:30 5.79 918 5990 (2009) 100 (1954) 801 135 176 280 296 575 957 1110 1390 2040
2021-02-12 03:30 5.78 911 5990 (2009) 100 (1954) 801 135 176 280 296 575 957 1110 1390 2040
2021-02-12 02:30 5.80 925 5990 (2009) 100 (1954) 801 135 176 280 296 575 957 1110 1390 2040
2021-02-12 01:30 5.80 925 5990 (2009) 100 (1954) 801 135 176 280 296 575 957 1110 1390 2040
2021-02-12 00:30 5.79 918 5990 (2009) 100 (1954) 801 135 176 280 296 575 957 1110 1390 2040
2021-02-11 23:30 5.78 911 17500 (1966) 96 (1954) 905 138 184 263 294 601 964 1020 1470 1950
2021-02-11 22:30 5.81 932 17500 (1966) 96 (1954) 905 138 184 263 294 601 964 1020 1470 1950
2021-02-11 21:30 5.80 925 17500 (1966) 96 (1954) 905 138 184 263 294 601 964 1020 1470 1950
2021-02-11 20:30 5.79 918 17500 (1966) 96 (1954) 905 138 184 263 294 601 964 1020 1470 1950
2021-02-11 19:30 5.80 925 17500 (1966) 96 (1954) 905 138 184 263 294 601 964 1020 1470 1950
2021-02-11 18:30 5.81 932 17500 (1966) 96 (1954) 905 138 184 263 294 601 964 1020 1470 1950
2021-02-11 17:30 5.81 932 17500 (1966) 96 (1954) 905 138 184 263 294 601 964 1020 1470 1950
2021-02-11 16:30 5.82 939 17500 (1966) 96 (1954) 905 138 184 263 294 601 964 1020 1470 1950
2021-02-11 15:30 5.80 925 17500 (1966) 96 (1954) 905 138 184 263 294 601 964 1020 1470 1950
2021-02-11 14:30 5.80 925 17500 (1966) 96 (1954) 905 138 184 263 294 601 964 1020 1470 1950
2021-02-11 13:30 5.81 932 17500 (1966) 96 (1954) 905 138 184 263 294 601 964 1020 1470 1950
2021-02-11 12:30 5.81 932 17500 (1966) 96 (1954) 905 138 184 263 294 601 964 1020 1470 1950
2021-02-11 11:30 5.80 925 17500 (1966) 96 (1954) 905 138 184 263 294 601 964 1020 1470 1950
2021-02-11 10:30 5.82 939 17500 (1966) 96 (1954) 905 138 184 263 294 601 964 1020 1470 1950
2021-02-11 09:30 5.82 939 17500 (1966) 96 (1954) 905 138 184 263 294 601 964 1020 1470 1950
2021-02-11 08:30 5.80 925 17500 (1966) 96 (1954) 905 138 184 263 294 601 964 1020 1470 1950
2021-02-11 07:30 5.82 939 17500 (1966) 96 (1954) 905 138 184 263 294 601 964 1020 1470 1950
2021-02-11 06:30 5.82 939 17500 (1966) 96 (1954) 905 138 184 263 294 601 964 1020 1470 1950
2021-02-11 05:30 5.83 947 17500 (1966) 96 (1954) 905 138 184 263 294 601 964 1020 1470 1950
2021-02-11 04:30 5.82 939 17500 (1966) 96 (1954) 905 138 184 263 294 601 964 1020 1470 1950
2021-02-11 03:30 5.82 939 17500 (1966) 96 (1954) 905 138 184 263 294 601 964 1020 1470 1950
2021-02-11 02:30 5.82 939 17500 (1966) 96 (1954) 905 138 184 263 294 601 964 1020 1470 1950
2021-02-11 01:30 5.85 962 17500 (1966) 96 (1954) 905 138 184 263 294 601 964 1020 1470 1950
2021-02-11 00:30 5.83 947 17500 (1966) 96 (1954) 905 138 184 263 294 601 964 1020 1470 1950
2021-02-10 23:30 5.83 947 10200 (1966) 106 (1954) 849 138 189 257 288 626 969 1060 1560 1970
2021-02-10 22:30 5.84 954 10200 (1966) 106 (1954) 849 138 189 257 288 626 969 1060 1560 1970
2021-02-10 21:30 5.84 954 10200 (1966) 106 (1954) 849 138 189 257 288 626 969 1060 1560 1970
2021-02-10 20:30 5.83 947 10200 (1966) 106 (1954) 849 138 189 257 288 626 969 1060 1560 1970
2021-02-10 19:30 5.83 947 10200 (1966) 106 (1954) 849 138 189 257 288 626 969 1060 1560 1970
2021-02-10 18:30 5.84 954 10200 (1966) 106 (1954) 849 138 189 257 288 626 969 1060 1560 1970
2021-02-10 17:30 5.83 947 10200 (1966) 106 (1954) 849 138 189 257 288 626 969 1060 1560 1970
2021-02-10 16:30 5.85 962 10200 (1966) 106 (1954) 849 138 189 257 288 626 969 1060 1560 1970
2021-02-10 15:30 5.84 954 10200 (1966) 106 (1954) 849 138 189 257 288 626 969 1060 1560 1970
2021-02-10 14:30 5.85 962 10200 (1966) 106 (1954) 849 138 189 257 288 626 969 1060 1560 1970
2021-02-10 13:30 5.86 969 10200 (1966) 106 (1954) 849 138 189 257 288 626 969 1060 1560 1970
2021-02-10 12:30 5.86 969 10200 (1966) 106 (1954) 849 138 189 257 288 626 969 1060 1560 1970
2021-02-10 11:30 5.86 969 10200 (1966) 106 (1954) 849 138 189 257 288 626 969 1060 1560 1970
2021-02-10 10:30 5.83 947 10200 (1966) 106 (1954) 849 138 189 257 288 626 969 1060 1560 1970
2021-02-10 09:30 5.85 962 10200 (1966) 106 (1954) 849 138 189 257 288 626 969 1060 1560 1970
2021-02-10 08:30 5.86 969 10200 (1966) 106 (1954) 849 138 189 257 288 626 969 1060 1560 1970
2021-02-10 07:30 5.85 962 10200 (1966) 106 (1954) 849 138 189 257 288 626 969 1060 1560 1970
2021-02-10 06:30 5.87 976 10200 (1966) 106 (1954) 849 138 189 257 288 626 969 1060 1560 1970
2021-02-10 05:30 5.88 984 10200 (1966) 106 (1954) 849 138 189 257 288 626 969 1060 1560 1970
2021-02-10 04:30 5.86 969 10200 (1966) 106 (1954) 849 138 189 257 288 626 969 1060 1560 1970
2021-02-10 03:30 5.88 984 10200 (1966) 106 (1954) 849 138 189 257 288 626 969 1060 1560 1970
2021-02-10 02:30 5.87 976 10200 (1966) 106 (1954) 849 138 189 257 288 626 969 1060 1560 1970
2021-02-10 01:30 5.86 969 10200 (1966) 106 (1954) 849 138 189 257 288 626 969 1060 1560 1970
2021-02-10 00:30 5.85 962 10200 (1966) 106 (1954) 849 138 189 257 288 626 969 1060 1560 1970
2021-02-09 23:30 5.87 976 8380 (1973) 107 (1940) 830 139 175 261 281 638 978 1140 1690 2100
2021-02-09 22:30 5.86 969 8380 (1973) 107 (1940) 830 139 175 261 281 638 978 1140 1690 2100
2021-02-09 21:30 5.86 969 8380 (1973) 107 (1940) 830 139 175 261 281 638 978 1140 1690 2100
2021-02-09 20:30 5.87 976 8380 (1973) 107 (1940) 830 139 175 261 281 638 978 1140 1690 2100
2021-02-09 19:30 5.88 984 8380 (1973) 107 (1940) 830 139 175 261 281 638 978 1140 1690 2100
2021-02-09 18:30 5.87 976 8380 (1973) 107 (1940) 830 139 175 261 281 638 978 1140 1690 2100
2021-02-09 17:30 5.86 969 8380 (1973) 107 (1940) 830 139 175 261 281 638 978 1140 1690 2100
2021-02-09 16:30 5.87 976 8380 (1973) 107 (1940) 830 139 175 261 281 638 978 1140 1690 2100
2021-02-09 15:30 5.86 969 8380 (1973) 107 (1940) 830 139 175 261 281 638 978 1140 1690 2100
2021-02-09 14:30 5.90 999 8380 (1973) 107 (1940) 830 139 175 261 281 638 978 1140 1690 2100
2021-02-09 13:30 5.88 984 8380 (1973) 107 (1940) 830 139 175 261 281 638 978 1140 1690 2100
2021-02-09 12:30 5.88 984 8380 (1973) 107 (1940) 830 139 175 261 281 638 978 1140 1690 2100
2021-02-09 11:30 5.91 1010 8380 (1973) 107 (1940) 830 139 175 261 281 638 978 1140 1690 2100
2021-02-09 10:30 5.90 999 8380 (1973) 107 (1940) 830 139 175 261 281 638 978 1140 1690 2100
2021-02-09 09:30 5.91 1010 8380 (1973) 107 (1940) 830 139 175 261 281 638 978 1140 1690 2100
2021-02-09 08:30 5.90 999 8380 (1973) 107 (1940) 830 139 175 261 281 638 978 1140 1690 2100
2021-02-09 07:30 5.90 999 8380 (1973) 107 (1940) 830 139 175 261 281 638 978 1140 1690 2100
2021-02-09 06:30 5.91 1010 8380 (1973) 107 (1940) 830 139 175 261 281 638 978 1140 1690 2100
2021-02-09 05:30 5.90 999 8380 (1973) 107 (1940) 830 139 175 261 281 638 978 1140 1690 2100
2021-02-09 04:30 5.92 1010 8380 (1973) 107 (1940) 830 139 175 261 281 638 978 1140 1690 2100
2021-02-09 03:30 5.93 1020 8380 (1973) 107 (1940) 830 139 175 261 281 638 978 1140 1690 2100
2021-02-09 02:30 5.90 999 8380 (1973) 107 (1940) 830 139 175 261 281 638 978 1140 1690 2100
2021-02-09 01:30 5.93 1020 8380 (1973) 107 (1940) 830 139 175 261 281 638 978 1140 1690 2100
2021-02-09 00:30 5.91 1010 8380 (1973) 107 (1940) 830 139 175 261 281 638 978 1140 1690 2100
2021-02-08 23:30 5.92 1010 7810 (1999) 107 (1940) 861 133 178 238 274 645 1020 1180 1850 2460
2021-02-08 22:30 5.94 1030 7810 (1999) 107 (1940) 861 133 178 238 274 645 1020 1180 1850 2460
2021-02-08 21:30 5.94 1030 7810 (1999) 107 (1940) 861 133 178 238 274 645 1020 1180 1850 2460
2021-02-08 20:30 5.92 1010 7810 (1999) 107 (1940) 861 133 178 238 274 645 1020 1180 1850 2460
2021-02-08 19:30 5.94 1030 7810 (1999) 107 (1940) 861 133 178 238 274 645 1020 1180 1850 2460
2021-02-08 18:30 5.94 1030 7810 (1999) 107 (1940) 861 133 178 238 274 645 1020 1180 1850 2460
2021-02-08 17:30 5.93 1020 7810 (1999) 107 (1940) 861 133 178 238 274 645 1020 1180 1850 2460
2021-02-08 16:30 5.94 1030 7810 (1999) 107 (1940) 861 133 178 238 274 645 1020 1180 1850 2460
2021-02-08 15:30 5.93 1020 7810 (1999) 107 (1940) 861 133 178 238 274 645 1020 1180 1850 2460
2021-02-08 14:30 5.92 1010 7810 (1999) 107 (1940) 861 133 178 238 274 645 1020 1180 1850 2460
2021-02-08 13:30 5.95 1040 7810 (1999) 107 (1940) 861 133 178 238 274 645 1020 1180 1850 2460
2021-02-08 12:30 5.94 1030 7810 (1999) 107 (1940) 861 133 178 238 274 645 1020 1180 1850 2460
2021-02-08 11:30 5.94 1030 7810 (1999) 107 (1940) 861 133 178 238 274 645 1020 1180 1850 2460
2021-02-08 10:30 5.93 1020 7810 (1999) 107 (1940) 861 133 178 238 274 645 1020 1180 1850 2460
2021-02-08 09:30 5.93 1020 7810 (1999) 107 (1940) 861 133 178 238 274 645 1020 1180 1850 2460
2021-02-08 08:30 5.95 1040 7810 (1999) 107 (1940) 861 133 178 238 274 645 1020 1180 1850 2460
2021-02-08 07:30 5.94 1030 7810 (1999) 107 (1940) 861 133 178 238 274 645 1020 1180 1850 2460
2021-02-08 06:30 5.97 1050 7810 (1999) 107 (1940) 861 133 178 238 274 645 1020 1180 1850 2460
2021-02-08 05:30 5.95 1040 7810 (1999) 107 (1940) 861 133 178 238 274 645 1020 1180 1850 2460
2021-02-08 04:30 5.94 1030 7810 (1999) 107 (1940) 861 133 178 238 274 645 1020 1180 1850 2460
2021-02-08 03:30 5.94 1030 7810 (1999) 107 (1940) 861 133 178 238 274 645 1020 1180 1850 2460
2021-02-08 02:30 5.93 1020 7810 (1999) 107 (1940) 861 133 178 238 274 645 1020 1180 1850 2460
2021-02-08 01:30 5.95 1040 7810 (1999) 107 (1940) 861 133 178 238 274 645 1020 1180 1850 2460
2021-02-08 00:30 5.96 1050 7810 (1999) 107 (1940) 861 133 178 238 274 645 1020 1180 1850 2460
2021-02-07 23:30 5.95 1040 5430 (1999) 107 (1940) 834 138 180 238 270 630 1060 1270 1690 2380
2021-02-07 22:30 5.95 1040 5430 (1999) 107 (1940) 834 138 180 238 270 630 1060 1270 1690 2380
2021-02-07 21:30 5.98 1060 5430 (1999) 107 (1940) 834 138 180 238 270 630 1060 1270 1690 2380
2021-02-07 20:30 5.96 1050 5430 (1999) 107 (1940) 834 138 180 238 270 630 1060 1270 1690 2380
2021-02-07 19:30 5.96 1050 5430 (1999) 107 (1940) 834 138 180 238 270 630 1060 1270 1690 2380
2021-02-07 18:30 5.97 1050 5430 (1999) 107 (1940) 834 138 180 238 270 630 1060 1270 1690 2380
2021-02-07 17:30 5.97 1050 5430 (1999) 107 (1940) 834 138 180 238 270 630 1060 1270 1690 2380
2021-02-07 16:30 5.96 1050 5430 (1999) 107 (1940) 834 138 180 238 270 630 1060 1270 1690 2380
2021-02-07 15:30 5.96 1050 5430 (1999) 107 (1940) 834 138 180 238 270 630 1060 1270 1690 2380
2021-02-07 14:30 5.97 1050 5430 (1999) 107 (1940) 834 138 180 238 270 630 1060 1270 1690 2380
2021-02-07 13:30 5.97 1050 5430 (1999) 107 (1940) 834 138 180 238 270 630 1060 1270 1690 2380
2021-02-07 12:30 5.98 1060 5430 (1999) 107 (1940) 834 138 180 238 270 630 1060 1270 1690 2380
2021-02-07 10:30 5.98 1060 5430 (1999) 107 (1940) 834 138 180 238 270 630 1060 1270 1690 2380
2021-02-07 09:30 5.99 1070 5430 (1999) 107 (1940) 834 138 180 238 270 630 1060 1270 1690 2380
2021-02-07 08:30 6.00 1080 5430 (1999) 107 (1940) 834 138 180 238 270 630 1060 1270 1690 2380
2021-02-07 07:30 5.99 1070 5430 (1999) 107 (1940) 834 138 180 238 270 630 1060 1270 1690 2380
2021-02-07 06:30 6.00 1080 5430 (1999) 107 (1940) 834 138 180 238 270 630 1060 1270 1690 2380
2021-02-07 05:30 6.00 1080 5430 (1999) 107 (1940) 834 138 180 238 270 630 1060 1270 1690 2380
2021-02-07 04:30 6.02 1090 5430 (1999) 107 (1940) 834 138 180 238 270 630 1060 1270 1690 2380
2021-02-07 03:30 6.02 1090 5430 (1999) 107 (1940) 834 138 180 238 270 630 1060 1270 1690 2380
2021-02-07 02:30 6.01 1080 5430 (1999) 107 (1940) 834 138 180 238 270 630 1060 1270 1690 2380
2021-02-07 01:30 6.02 1090 5430 (1999) 107 (1940) 834 138 180 238 270 630 1060 1270 1690 2380
2021-02-07 00:30 6.01 1080 5430 (1999) 107 (1940) 834 138 180 238 270 630 1060 1270 1690 2380
2021-02-06 23:30 6.02 1090 3840 (2020) 107 (1940) 792 132 181 245 274 590 1020 1190 1790 2500
2021-02-06 22:30 6.01 1080 3840 (2020) 107 (1940) 792 132 181 245 274 590 1020 1190 1790 2500
2021-02-06 21:30 6.02 1090 3840 (2020) 107 (1940) 792 132 181 245 274 590 1020 1190 1790 2500
2021-02-06 20:30 6.02 1090 3840 (2020) 107 (1940) 792 132 181 245 274 590 1020 1190 1790 2500
2021-02-06 19:30 6.03 1100 3840 (2020) 107 (1940) 792 132 181 245 274 590 1020 1190 1790 2500
2021-02-06 18:30 6.02 1090 3840 (2020) 107 (1940) 792 132 181 245 274 590 1020 1190 1790 2500
2021-02-06 17:30 6.04 1110 3840 (2020) 107 (1940) 792 132 181 245 274 590 1020 1190 1790 2500
2021-02-06 16:30 6.03 1100 3840 (2020) 107 (1940) 792 132 181 245 274 590 1020 1190 1790 2500
2021-02-06 15:30 6.05 1120 3840 (2020) 107 (1940) 792 132 181 245 274 590 1020 1190 1790 2500
2021-02-06 14:30 6.05 1120 3840 (2020) 107 (1940) 792 132 181 245 274 590 1020 1190 1790 2500
2021-02-06 13:30 6.04 1110 3840 (2020) 107 (1940) 792 132 181 245 274 590 1020 1190 1790 2500
2021-02-06 12:30 6.03 1100 3840 (2020) 107 (1940) 792 132 181 245 274 590 1020 1190 1790 2500
2021-02-06 11:30 6.04 1110 3840 (2020) 107 (1940) 792 132 181 245 274 590 1020 1190 1790 2500
2021-02-06 10:30 6.05 1120 3840 (2020) 107 (1940) 792 132 181 245 274 590 1020 1190 1790 2500
2021-02-06 09:30 6.06 1130 3840 (2020) 107 (1940) 792 132 181 245 274 590 1020 1190 1790 2500
2021-02-06 08:30 6.04 1110 3840 (2020) 107 (1940) 792 132 181 245 274 590 1020 1190 1790 2500
2021-02-06 07:30 6.06 1130 3840 (2020) 107 (1940) 792 132 181 245 274 590 1020 1190 1790 2500
2021-02-06 06:30 6.07 1130 3840 (2020) 107 (1940) 792 132 181 245 274 590 1020 1190 1790 2500
2021-02-06 05:30 6.06 1130 3840 (2020) 107 (1940) 792 132 181 245 274 590 1020 1190 1790 2500
2021-02-06 04:30 6.07 1130 3840 (2020) 107 (1940) 792 132 181 245 274 590 1020 1190 1790 2500
2021-02-06 03:30 6.07 1130 3840 (2020) 107 (1940) 792 132 181 245 274 590 1020 1190 1790 2500
2021-02-06 02:30 6.08 1140 3840 (2020) 107 (1940) 792 132 181 245 274 590 1020 1190 1790 2500
2021-02-06 01:30 6.07 1130 3840 (2020) 107 (1940) 792 132 181 245 274 590 1020 1190 1790 2500
2021-02-06 00:30 6.08 1140 3840 (2020) 107 (1940) 792 132 181 245 274 590 1020 1190 1790 2500
2021-02-05 23:30 6.08 1140 4750 (2020) 107 (1940) 834 135 187 240 271 510 987 1280 2110 2500
2021-02-05 22:30 6.07 1130 4750 (2020) 107 (1940) 834 135 187 240 271 510 987 1280 2110 2500
2021-02-05 21:30 6.08 1140 4750 (2020) 107 (1940) 834 135 187 240 271 510 987 1280 2110 2500
2021-02-05 20:30 6.08 1140 4750 (2020) 107 (1940) 834 135 187 240 271 510 987 1280 2110 2500
2021-02-05 19:30 6.07 1130 4750 (2020) 107 (1940) 834 135 187 240 271 510 987 1280 2110 2500
2021-02-05 18:30 6.07 1130 4750 (2020) 107 (1940) 834 135 187 240 271 510 987 1280 2110 2500
2021-02-05 17:30 6.09 1150 4750 (2020) 107 (1940) 834 135 187 240 271 510 987 1280 2110 2500
2021-02-05 16:30 6.08 1140 4750 (2020) 107 (1940) 834 135 187 240 271 510 987 1280 2110 2500
2021-02-05 15:30 6.09 1150 4750 (2020) 107 (1940) 834 135 187 240 271 510 987 1280 2110 2500
2021-02-05 14:30 6.11 1170 4750 (2020) 107 (1940) 834 135 187 240 271 510 987 1280 2110 2500
2021-02-05 13:30 6.08 1140 4750 (2020) 107 (1940) 834 135 187 240 271 510 987 1280 2110 2500
2021-02-05 12:30 6.09 1150 4750 (2020) 107 (1940) 834 135 187 240 271 510 987 1280 2110 2500
2021-02-05 11:30 6.11 1170 4750 (2020) 107 (1940) 834 135 187 240 271 510 987 1280 2110 2500
2021-02-05 10:30 6.11 1170 4750 (2020) 107 (1940) 834 135 187 240 271 510 987 1280 2110 2500
2021-02-05 09:30 6.13 1180 4750 (2020) 107 (1940) 834 135 187 240 271 510 987 1280 2110 2500
2021-02-05 08:30 6.12 1180 4750 (2020) 107 (1940) 834 135 187 240 271 510 987 1280 2110 2500
2021-02-05 07:30 6.12 1180 4750 (2020) 107 (1940) 834 135 187 240 271 510 987 1280 2110 2500
2021-02-05 06:30 6.12 1180 4750 (2020) 107 (1940) 834 135 187 240 271 510 987 1280 2110 2500
2021-02-05 05:30 6.13 1180 4750 (2020) 107 (1940) 834 135 187 240 271 510 987 1280 2110 2500
2021-02-05 04:30 6.15 1200 4750 (2020) 107 (1940) 834 135 187 240 271 510 987 1280 2110 2500
2021-02-05 03:30 6.13 1180 4750 (2020) 107 (1940) 834 135 187 240 271 510 987 1280 2110 2500
2021-02-05 02:30 6.11 1170 4750 (2020) 107 (1940) 834 135 187 240 271 510 987 1280 2110 2500
2021-02-05 01:30 6.15 1200 4750 (2020) 107 (1940) 834 135 187 240 271 510 987 1280 2110 2500
2021-02-05 00:30 6.13 1180 4750 (2020) 107 (1940) 834 135 187 240 271 510 987 1280 2110 2500
2021-02-04 23:30 6.13 1180 5080 (1968) 102 (1964) 847 140 188 233 267 526 1040 1330 2070 2850
2021-02-04 22:30 6.14 1190 5080 (1968) 102 (1964) 847 140 188 233 267 526 1040 1330 2070 2850
2021-02-04 21:30 6.13 1180 5080 (1968) 102 (1964) 847 140 188 233 267 526 1040 1330 2070 2850
2021-02-04 20:30 6.16 1210 5080 (1968) 102 (1964) 847 140 188 233 267 526 1040 1330 2070 2850
2021-02-04 19:30 6.16 1210 5080 (1968) 102 (1964) 847 140 188 233 267 526 1040 1330 2070 2850
2021-02-04 18:30 6.14 1190 5080 (1968) 102 (1964) 847 140 188 233 267 526 1040 1330 2070 2850
2021-02-04 17:30 6.16 1210 5080 (1968) 102 (1964) 847 140 188 233 267 526 1040 1330 2070 2850
2021-02-04 16:30 6.16 1210 5080 (1968) 102 (1964) 847 140 188 233 267 526 1040 1330 2070 2850
2021-02-04 15:30 6.15 1200 5080 (1968) 102 (1964) 847 140 188 233 267 526 1040 1330 2070 2850
2021-02-04 14:30 6.18 1230 5080 (1968) 102 (1964) 847 140 188 233 267 526 1040 1330 2070 2850
2021-02-04 13:30 6.17 1220 5080 (1968) 102 (1964) 847 140 188 233 267 526 1040 1330 2070 2850
2021-02-04 12:30 6.18 1230 5080 (1968) 102 (1964) 847 140 188 233 267 526 1040 1330 2070 2850
2021-02-04 11:30 6.20 1240 5080 (1968) 102 (1964) 847 140 188 233 267 526 1040 1330 2070 2850
2021-02-04 10:30 6.20 1240 5080 (1968) 102 (1964) 847 140 188 233 267 526 1040 1330 2070 2850
2021-02-04 09:30 6.19 1240 5080 (1968) 102 (1964) 847 140 188 233 267 526 1040 1330 2070 2850
2021-02-04 08:30 6.20 1240 5080 (1968) 102 (1964) 847 140 188 233 267 526 1040 1330 2070 2850
2021-02-04 07:30 6.20 1240 5080 (1968) 102 (1964) 847 140 188 233 267 526 1040 1330 2070 2850
2021-02-04 06:30 6.20 1240 5080 (1968) 102 (1964) 847 140 188 233 267 526 1040 1330 2070 2850
2021-02-04 05:30 6.20 1240 5080 (1968) 102 (1964) 847 140 188 233 267 526 1040 1330 2070 2850
2021-02-04 04:30 6.21 1250 5080 (1968) 102 (1964) 847 140 188 233 267 526 1040 1330 2070 2850
2021-02-04 03:30 6.21 1250 5080 (1968) 102 (1964) 847 140 188 233 267 526 1040 1330 2070 2850
2021-02-04 02:30 6.23 1270 5080 (1968) 102 (1964) 847 140 188 233 267 526 1040 1330 2070 2850
2021-02-04 01:30 6.22 1260 5080 (1968) 102 (1964) 847 140 188 233 267 526 1040 1330 2070 2850
2021-02-04 00:30 6.20 1240 5080 (1968) 102 (1964) 847 140 188 233 267 526 1040 1330 2070 2850
2021-02-03 23:30 6.23 1270 13400 (1968) 100 (1964) 1020 128 185 233 268 514 1070 1300 2430 3590
2021-02-03 22:30 6.23 1270 13400 (1968) 100 (1964) 1020 128 185 233 268 514 1070 1300 2430 3590
2021-02-03 21:30 6.22 1260 13400 (1968) 100 (1964) 1020 128 185 233 268 514 1070 1300 2430 3590
2021-02-03 20:30 6.23 1270 13400 (1968) 100 (1964) 1020 128 185 233 268 514 1070 1300 2430 3590
2021-02-03 19:30 6.23 1270 13400 (1968) 100 (1964) 1020 128 185 233 268 514 1070 1300 2430 3590
2021-02-03 18:30 6.24 1280 13400 (1968) 100 (1964) 1020 128 185 233 268 514 1070 1300 2430 3590
2021-02-03 17:30 6.22 1260 13400 (1968) 100 (1964) 1020 128 185 233 268 514 1070 1300 2430 3590
2021-02-03 16:30 6.22 1260 13400 (1968) 100 (1964) 1020 128 185 233 268 514 1070 1300 2430 3590
2021-02-03 15:30 6.24 1280 13400 (1968) 100 (1964) 1020 128 185 233 268 514 1070 1300 2430 3590
2021-02-03 14:30 6.24 1280 13400 (1968) 100 (1964) 1020 128 185 233 268 514 1070 1300 2430 3590
2021-02-03 13:30 6.25 1290 13400 (1968) 100 (1964) 1020 128 185 233 268 514 1070 1300 2430 3590
2021-02-03 12:30 6.26 1300 13400 (1968) 100 (1964) 1020 128 185 233 268 514 1070 1300 2430 3590
2021-02-03 11:30 6.25 1290 13400 (1968) 100 (1964) 1020 128 185 233 268 514 1070 1300 2430 3590
2021-02-03 10:30 6.27 1310 13400 (1968) 100 (1964) 1020 128 185 233 268 514 1070 1300 2430 3590
2021-02-03 09:30 6.29 1320 13400 (1968) 100 (1964) 1020 128 185 233 268 514 1070 1300 2430 3590
2021-02-03 08:30 6.29 1320 13400 (1968) 100 (1964) 1020 128 185 233 268 514 1070 1300 2430 3590
2021-02-03 07:30 6.31 1340 13400 (1968) 100 (1964) 1020 128 185 233 268 514 1070 1300 2430 3590
2021-02-03 06:30 6.29 1320 13400 (1968) 100 (1964) 1020 128 185 233 268 514 1070 1300 2430 3590
2021-02-03 05:30 6.30 1330 13400 (1968) 100 (1964) 1020 128 185 233 268 514 1070 1300 2430 3590
2021-02-03 04:30 6.32 1350 13400 (1968) 100 (1964) 1020 128 185 233 268 514 1070 1300 2430 3590
2021-02-03 03:30 6.30 1330 13400 (1968) 100 (1964) 1020 128 185 233 268 514 1070 1300 2430 3590
2021-02-03 02:30 6.31 1340 13400 (1968) 100 (1964) 1020 128 185 233 268 514 1070 1300 2430 3590
2021-02-03 01:30 6.32 1350 13400 (1968) 100 (1964) 1020 128 185 233 268 514 1070 1300 2430 3590
2021-02-03 00:30 6.33 1360 13400 (1968) 100 (1964) 1020 128 185 233 268 514 1070 1300 2430 3590
2021-02-02 23:30 6.32 1350 12600 (1968) 98 (1964) 1040 128 185 242 263 563 1140 1220 1960 4080
2021-02-02 22:30 6.32 1350 12600 (1968) 98 (1964) 1040 128 185 242 263 563 1140 1220 1960 4080
2021-02-02 21:30 6.36 1390 12600 (1968) 98 (1964) 1040 128 185 242 263 563 1140 1220 1960 4080
2021-02-02 20:30 6.34 1370 12600 (1968) 98 (1964) 1040 128 185 242 263 563 1140 1220 1960 4080
2021-02-02 19:30 6.35 1380 12600 (1968) 98 (1964) 1040 128 185 242 263 563 1140 1220 1960 4080
2021-02-02 18:30 6.34 1370 12600 (1968) 98 (1964) 1040 128 185 242 263 563 1140 1220 1960 4080
2021-02-02 17:30 6.35 1380 12600 (1968) 98 (1964) 1040 128 185 242 263 563 1140 1220 1960 4080
2021-02-02 16:30 6.36 1390 12600 (1968) 98 (1964) 1040 128 185 242 263 563 1140 1220 1960 4080
2021-02-02 15:30 6.35 1380 12600 (1968) 98 (1964) 1040 128 185 242 263 563 1140 1220 1960 4080
2021-02-02 14:30 6.35 1380 12600 (1968) 98 (1964) 1040 128 185 242 263 563 1140 1220 1960 4080
2021-02-02 13:30 6.40 1430 12600 (1968) 98 (1964) 1040 128 185 242 263 563 1140 1220 1960 4080
2021-02-02 12:30 6.37 1400 12600 (1968) 98 (1964) 1040 128 185 242 263 563 1140 1220 1960 4080
2021-02-02 11:30 6.41 1440 12600 (1968) 98 (1964) 1040 128 185 242 263 563 1140 1220 1960 4080
2021-02-02 10:30 6.39 1420 12600 (1968) 98 (1964) 1040 128 185 242 263 563 1140 1220 1960 4080
2021-02-02 09:30 6.42 1450 12600 (1968) 98 (1964) 1040 128 185 242 263 563 1140 1220 1960 4080
2021-02-02 08:30 6.43 1460 12600 (1968) 98 (1964) 1040 128 185 242 263 563 1140 1220 1960 4080
2021-02-02 07:30 6.42 1450 12600 (1968) 98 (1964) 1040 128 185 242 263 563 1140 1220 1960 4080
2021-02-02 06:30 6.44 1470 12600 (1968) 98 (1964) 1040 128 185 242 263 563 1140 1220 1960 4080
2021-02-02 05:30 6.42 1450 12600 (1968) 98 (1964) 1040 128 185 242 263 563 1140 1220 1960 4080
2021-02-02 04:30 6.45 1480 12600 (1968) 98 (1964) 1040 128 185 242 263 563 1140 1220 1960 4080
2021-02-02 03:30 6.45 1480 12600 (1968) 98 (1964) 1040 128 185 242 263 563 1140 1220 1960 4080
2021-02-02 02:30 6.47 1500 12600 (1968) 98 (1964) 1040 128 185 242 263 563 1140 1220 1960 4080
2021-02-02 01:30 6.49 1520 12600 (1968) 98 (1964) 1040 128 185 242 263 563 1140 1220 1960 4080
2021-02-02 00:30 6.47 1500 12600 (1968) 98 (1964) 1040 128 185 242 263 563 1140 1220 1960 4080
2021-02-01 23:30 6.47 1500 15600 (1982) 94 (1964) 1090 131 186 246 272 543 1080 1180 1790 4440
2021-02-01 22:30 6.48 1510 15600 (1982) 94 (1964) 1090 131 186 246 272 543 1080 1180 1790 4440
2021-02-01 21:30 6.48 1510 15600 (1982) 94 (1964) 1090 131 186 246 272 543 1080 1180 1790 4440
2021-02-01 20:30 6.48 1510 15600 (1982) 94 (1964) 1090 131 186 246 272 543 1080 1180 1790 4440
2021-02-01 19:30 6.49 1520 15600 (1982) 94 (1964) 1090 131 186 246 272 543 1080 1180 1790 4440
2021-02-01 18:30 6.50 1530 15600 (1982) 94 (1964) 1090 131 186 246 272 543 1080 1180 1790 4440
2021-02-01 17:30 6.51 1540 15600 (1982) 94 (1964) 1090 131 186 246 272 543 1080 1180 1790 4440
2021-02-01 16:30 6.51 1540 15600 (1982) 94 (1964) 1090 131 186 246 272 543 1080 1180 1790 4440
2021-02-01 15:30 6.53 1560 15600 (1982) 94 (1964) 1090 131 186 246 272 543 1080 1180 1790 4440
2021-02-01 14:30 6.55 1580 15600 (1982) 94 (1964) 1090 131 186 246 272 543 1080 1180 1790 4440
2021-02-01 13:30 6.55 1580 15600 (1982) 94 (1964) 1090 131 186 246 272 543 1080 1180 1790 4440
2021-02-01 12:30 6.55 1580 15600 (1982) 94 (1964) 1090 131 186 246 272 543 1080 1180 1790 4440
2021-02-01 11:30 6.56 1590 15600 (1982) 94 (1964) 1090 131 186 246 272 543 1080 1180 1790 4440
2021-02-01 10:30 6.58 1610 15600 (1982) 94 (1964) 1090 131 186 246 272 543 1080 1180 1790 4440
2021-02-01 09:30 6.57 1600 15600 (1982) 94 (1964) 1090 131 186 246 272 543 1080 1180 1790 4440
2021-02-01 08:30 6.60 1630 15600 (1982) 94 (1964) 1090 131 186 246 272 543 1080 1180 1790 4440
2021-02-01 07:30 6.55 1580 15600 (1982) 94 (1964) 1090 131 186 246 272 543 1080 1180 1790 4440
2021-02-01 06:30 6.58 1610 15600 (1982) 94 (1964) 1090 131 186 246 272 543 1080 1180 1790 4440
2021-02-01 05:30 6.57 1600 15600 (1982) 94 (1964) 1090 131 186 246 272 543 1080 1180 1790 4440
2021-02-01 04:30 6.58 1610 15600 (1982) 94 (1964) 1090 131 186 246 272 543 1080 1180 1790 4440
2021-02-01 03:30 6.55 1580 15600 (1982) 94 (1964) 1090 131 186 246 272 543 1080 1180 1790 4440
2021-02-01 02:30 6.61 1640 15600 (1982) 94 (1964) 1090 131 186 246 272 543 1080 1180 1790 4440
2021-02-01 01:30 6.56 1590 15600 (1982) 94 (1964) 1090 131 186 246 272 543 1080 1180 1790 4440
2021-02-01 00:30 6.55 1580 15600 (1982) 94 (1964) 1090 131 186 246 272 543 1080 1180 1790 4440

A total of 730 rows are displayed for years 1936 through 2020.